createdAt,value
2018-09-08T00:00:16.088Z,90.55
2018-09-08T00:01:15.960Z,90.36
2018-09-08T00:02:15.960Z,90.36
2018-09-08T00:03:15.965Z,90.55
2018-09-08T00:04:15.847Z,90.26
2018-09-08T00:05:15.841Z,90.17
2018-09-08T00:06:15.719Z,90.07
2018-09-08T00:07:15.720Z,90.07
2018-09-08T00:08:15.720Z,89.69
2018-09-08T00:09:15.601Z,89.97
2018-09-08T00:10:15.599Z,89.78
2018-09-08T00:11:15.600Z,89.69
2018-09-08T00:12:15.482Z,89.40
2018-09-08T00:13:15.481Z,89.21
2018-09-08T00:14:15.436Z,88.92
2018-09-08T00:15:15.359Z,89.40
2018-09-08T00:16:15.359Z,89.50
2018-09-08T00:17:15.237Z,90.07
2018-09-08T00:18:15.239Z,89.88
2018-09-08T00:19:15.239Z,89.97
2018-09-08T00:20:15.119Z,90.26
2018-09-08T00:21:15.119Z,89.97
2018-09-08T00:22:15.117Z,90.36
2018-09-08T00:23:15.000Z,90.17
2018-09-08T00:24:14.994Z,90.36
2018-09-08T00:25:14.876Z,90.93
2018-09-08T00:26:14.879Z,91.21
2018-09-08T00:27:14.877Z,91.12
2018-09-08T00:28:14.759Z,90.07
2018-09-08T00:29:14.754Z,89.97
2018-09-08T00:30:14.754Z,91.41
2018-09-08T00:31:14.634Z,90.55
2018-09-08T00:32:14.635Z,90.26
2018-09-08T00:33:14.514Z,90.17
2018-09-08T00:34:14.515Z,91.02
2018-09-08T00:35:14.513Z,90.26
2018-09-08T00:36:14.396Z,90.26
2018-09-08T00:37:14.393Z,90.07
2018-09-08T00:38:14.393Z,90.64
2018-09-08T00:39:14.272Z,90.93
2018-09-08T00:40:14.274Z,91.02
2018-09-08T00:41:14.157Z,91.21
2018-09-08T00:42:14.156Z,90.83
2018-09-08T00:43:14.152Z,90.26
2018-09-08T00:44:14.033Z,89.78
2018-09-08T00:45:14.035Z,89.97
2018-09-08T00:46:14.037Z,90.36
2018-09-08T00:47:13.912Z,90.45
2018-09-08T00:48:13.917Z,90.55
2018-09-08T00:49:13.910Z,90.73
2018-09-08T00:50:13.792Z,90.55
2018-09-08T00:51:13.793Z,91.12
2018-09-08T00:52:13.677Z,91.12
2018-09-08T00:53:13.671Z,91.12
2018-09-08T00:54:13.675Z,89.97
2018-09-08T00:55:13.553Z,90.17
2018-09-08T00:56:13.553Z,90.36
2018-09-08T00:57:13.552Z,90.64
2018-09-08T00:58:13.428Z,91.78
2018-09-08T00:59:13.428Z,92.17
2018-09-08T01:00:13.310Z,91.98
2018-09-08T01:01:13.313Z,91.88
2018-09-08T01:02:13.310Z,92.36
2018-09-08T01:03:13.189Z,92.26
2018-09-08T01:04:13.189Z,92.07
2018-09-08T01:05:13.188Z,91.31
2018-09-08T01:06:13.067Z,91.31
2018-09-08T01:07:13.067Z,91.60
2018-09-08T01:08:12.946Z,91.31
2018-09-08T01:09:12.952Z,90.93
2018-09-08T01:10:12.949Z,91.50
2018-09-08T01:11:12.826Z,91.88
2018-09-08T01:12:12.826Z,92.26
2018-09-08T01:13:12.825Z,92.46
2018-09-08T01:14:12.704Z,92.26
2018-09-08T01:15:12.706Z,91.74
2018-09-08T01:16:12.587Z,91.88
2018-09-08T01:17:12.587Z,91.88
2018-09-08T01:18:12.588Z,92.36
2018-09-08T01:19:12.469Z,92.36
2018-09-08T01:20:12.465Z,92.88
2018-09-08T01:21:12.467Z,92.60
2018-09-08T01:22:12.348Z,91.93
2018-09-08T01:23:12.343Z,91.88
2018-09-08T01:24:12.303Z,91.74
2018-09-08T01:25:12.224Z,92.07
2018-09-08T01:26:12.226Z,92.74
2018-09-08T01:27:12.105Z,92.83
2018-09-08T01:28:12.102Z,92.79
2018-09-08T01:29:12.104Z,92.83
2018-09-08T01:30:11.982Z,92.36
2018-09-08T01:31:11.981Z,92.07
2018-09-08T01:32:11.984Z,92.26
2018-09-08T01:33:11.864Z,91.98
2018-09-08T01:34:11.860Z,93.02
2018-09-08T01:35:11.741Z,92.74
2018-09-08T01:36:11.743Z,92.83
2018-09-08T01:37:11.741Z,93.22
2018-09-08T01:38:11.623Z,92.83
2018-09-08T01:39:11.623Z,92.07
2018-09-08T01:40:11.624Z,92.17
2018-09-08T01:41:11.506Z,91.78
2018-09-08T01:42:11.502Z,91.69
2018-09-08T01:43:11.378Z,91.12
2018-09-08T01:44:11.381Z,91.21
2018-09-08T01:45:11.381Z,91.12
2018-09-08T01:46:11.258Z,91.41
2018-09-08T01:47:11.258Z,93.12
2018-09-08T01:48:11.263Z,93.60
2018-09-08T01:49:11.138Z,91.78
2018-09-08T01:50:11.139Z,91.12
2018-09-08T01:51:11.018Z,91.50
2018-09-08T01:52:11.019Z,91.31
2018-09-08T01:53:11.019Z,91.02
2018-09-08T01:54:10.897Z,91.21
2018-09-08T01:55:10.896Z,91.31
2018-09-08T01:56:10.897Z,92.07
2018-09-08T01:57:10.775Z,91.50
2018-09-08T01:58:10.776Z,91.12
2018-09-08T01:59:10.656Z,91.31
2018-09-08T02:00:10.655Z,91.88
2018-09-08T02:01:10.656Z,91.88
2018-09-08T02:02:10.535Z,92.07
2018-09-08T02:03:10.539Z,92.26
2018-09-08T02:04:10.537Z,92.07
2018-09-08T02:05:10.416Z,90.55
2018-09-08T02:06:10.416Z,90.45
2018-09-08T02:07:10.374Z,90.45
2018-09-08T02:08:10.295Z,91.12
2018-09-08T02:09:10.297Z,91.31
2018-09-08T02:10:10.173Z,91.50
2018-09-08T02:11:10.173Z,91.98
2018-09-08T02:12:10.178Z,92.17
2018-09-08T02:13:10.055Z,92.17
2018-09-08T02:14:10.052Z,92.26
2018-09-08T02:15:10.053Z,91.88
2018-09-08T02:16:09.933Z,91.50
2018-09-08T02:17:09.932Z,91.21
2018-09-08T02:18:09.812Z,91.78
2018-09-08T02:19:09.816Z,91.60
2018-09-08T02:20:09.811Z,91.36
2018-09-08T02:21:09.693Z,91.21
2018-09-08T02:22:09.691Z,91.88
2018-09-08T02:23:09.692Z,91.98
2018-09-08T02:24:09.571Z,91.88
2018-09-08T02:25:09.570Z,91.60
2018-09-08T02:26:09.451Z,90.45
2018-09-08T02:27:09.452Z,90.45
2018-09-08T02:28:09.450Z,91.31
2018-09-08T02:29:09.331Z,91.16
2018-09-08T02:30:09.335Z,91.41
2018-09-08T02:31:09.332Z,91.64
2018-09-08T02:32:09.209Z,91.41
2018-09-08T02:33:09.210Z,90.97
2018-09-08T02:34:09.175Z,91.21
2018-09-08T02:35:09.090Z,90.40
2018-09-08T02:36:09.087Z,90.36
2018-09-08T02:37:08.968Z,89.92
2018-09-08T02:38:08.968Z,89.21
2018-09-08T02:39:08.968Z,89.73
2018-09-08T02:40:08.847Z,90.31
2018-09-08T02:41:08.847Z,90.11
2018-09-08T02:42:08.844Z,91.16
2018-09-08T02:43:08.729Z,91.21
2018-09-08T02:44:08.728Z,91.21
2018-09-08T02:45:08.607Z,91.78
2018-09-08T02:46:08.604Z,91.12
2018-09-08T02:47:08.608Z,91.69
2018-09-08T02:48:08.486Z,91.88
2018-09-08T02:49:08.484Z,92.26
2018-09-08T02:50:08.484Z,92.36
2018-09-08T02:51:08.366Z,92.46
2018-09-08T02:52:08.365Z,91.98
2018-09-08T02:53:08.250Z,92.65
2018-09-08T02:54:08.258Z,93.12
2018-09-08T02:55:08.244Z,93.79
2018-09-08T02:56:08.125Z,93.02
2018-09-08T02:57:08.125Z,92.74
2018-09-08T02:58:08.123Z,92.74
2018-09-08T02:59:08.007Z,93.02
2018-09-08T03:00:08.020Z,92.93
2018-09-08T03:01:07.883Z,92.93
2018-09-08T03:02:07.883Z,92.83
2018-09-08T03:03:07.886Z,93.31
2018-09-08T03:04:07.764Z,93.70
2018-09-08T03:05:07.761Z,93.41
2018-09-08T03:06:10.041Z,93.12
2018-09-08T03:07:07.643Z,93.41
2018-09-08T03:08:07.643Z,93.98
2018-09-08T03:09:07.523Z,93.60
2018-09-08T03:10:07.523Z,93.88
2018-09-08T03:11:07.521Z,94.17
2018-09-08T03:12:07.401Z,94.36
2018-09-08T03:13:07.401Z,94.22
2018-09-08T03:14:07.400Z,94.74
2018-09-08T03:15:07.279Z,94.60
2018-09-08T03:16:07.291Z,94.79
2018-09-08T03:17:07.243Z,95.17
2018-09-08T03:18:07.158Z,94.79
2018-09-08T03:19:07.164Z,94.98
2018-09-08T03:20:07.039Z,94.98
2018-09-08T03:21:07.038Z,94.79
2018-09-08T03:22:07.040Z,95.17
2018-09-08T03:23:06.921Z,94.89
2018-09-08T03:24:06.921Z,95.46
2018-09-08T03:25:06.918Z,95.94
2018-09-08T03:26:06.798Z,96.03
2018-09-08T03:27:06.798Z,96.03
2018-09-08T03:28:06.681Z,95.94
2018-09-08T03:29:06.684Z,95.94
2018-09-08T03:30:06.686Z,95.84
2018-09-08T03:31:06.561Z,96.61
2018-09-08T03:32:06.557Z,96.61
2018-09-08T03:33:06.556Z,95.94
2018-09-08T03:34:06.436Z,96.22
2018-09-08T03:35:06.437Z,96.22
2018-09-08T03:36:06.316Z,96.32
2018-09-08T03:37:06.317Z,96.61
2018-09-08T03:38:06.316Z,96.22
2018-09-08T03:39:06.195Z,96.70
2018-09-08T03:40:06.196Z,97.08
2018-09-08T03:41:06.193Z,97.56
2018-09-08T03:42:06.074Z,97.56
2018-09-08T03:43:06.073Z,97.75
2018-09-08T03:44:05.953Z,97.85
2018-09-08T03:45:05.955Z,98.13
2018-09-08T03:46:05.952Z,98.03
2018-09-08T03:47:05.834Z,99.18
2018-09-08T03:48:05.831Z,99.18
2018-09-08T03:49:05.833Z,99.37
2018-09-08T03:50:05.713Z,98.51
2018-09-08T03:51:05.713Z,98.70
2018-09-08T03:52:05.594Z,98.80
2018-09-08T03:53:05.671Z,98.90
2018-09-08T03:54:05.713Z,98.70
2018-09-08T03:55:05.582Z,98.80
2018-09-08T03:56:05.670Z,98.70
2018-09-08T03:57:05.472Z,98.13
2018-09-08T03:58:05.353Z,97.94
2018-09-08T03:59:05.414Z,97.17
2018-09-08T04:00:05.234Z,97.94
2018-09-08T04:01:05.230Z,97.75
2018-09-08T04:02:05.232Z,98.51
2018-09-08T04:03:05.111Z,99.18
2018-09-08T04:04:05.108Z,99.18
2018-09-08T04:05:05.113Z,98.90
2018-09-08T04:06:04.988Z,99.08
2018-09-08T04:07:04.989Z,99.99
2018-09-08T04:08:04.867Z,99.85
2018-09-08T04:09:04.866Z,99.75
2018-09-08T04:10:04.868Z,99.95
2018-09-08T04:11:04.751Z,99.85
2018-09-08T04:12:04.745Z,99.85
2018-09-08T04:13:04.749Z,99.75
2018-09-08T04:14:04.629Z,98.80
2018-09-08T04:15:04.629Z,98.99
2018-09-08T04:16:04.510Z,99.56
2018-09-08T04:17:04.510Z,99.18
2018-09-08T04:18:04.522Z,99.08
2018-09-08T04:19:04.387Z,98.80
2018-09-08T04:20:04.385Z,98.61
2018-09-08T04:21:04.387Z,99.18
2018-09-08T04:22:04.264Z,99.18
2018-09-08T04:23:04.269Z,99.99
2018-09-08T04:24:04.181Z,99.99
2018-09-08T04:25:04.148Z,99.99
2018-09-08T04:26:04.148Z,99.99
2018-09-08T04:27:04.024Z,99.99
2018-09-08T04:28:04.030Z,99.99
2018-09-08T04:29:04.023Z,99.99
2018-09-08T04:30:03.904Z,99.99
2018-09-08T04:31:03.903Z,99.99
2018-09-08T04:32:03.782Z,99.99
2018-09-08T04:33:03.783Z,99.99
2018-09-08T04:34:03.788Z,99.99
2018-09-08T04:35:03.664Z,99.99
2018-09-08T04:36:03.661Z,99.99
2018-09-08T04:37:03.662Z,99.99
2018-09-08T04:38:03.543Z,99.99
2018-09-08T04:39:03.540Z,99.99
2018-09-08T04:40:03.421Z,99.99
2018-09-08T04:41:03.484Z,99.99
2018-09-08T04:42:03.420Z,99.99
2018-09-08T04:43:03.303Z,99.99
2018-09-08T04:44:03.300Z,99.99
2018-09-08T04:45:03.300Z,99.99
2018-09-08T04:46:03.180Z,99.99
2018-09-08T04:47:03.180Z,99.99
2018-09-08T04:48:03.137Z,99.99
2018-09-08T04:49:03.115Z,99.99
2018-09-08T04:50:03.060Z,99.99
2018-09-08T04:51:02.941Z,99.99
2018-09-08T04:52:02.944Z,99.99
2018-09-08T04:53:02.939Z,99.99
2018-09-08T04:54:02.820Z,99.99
2018-09-08T04:55:02.818Z,99.99
2018-09-08T04:56:02.698Z,99.99
2018-09-08T04:57:02.699Z,99.99
2018-09-08T04:58:02.706Z,99.99
2018-09-08T04:59:02.577Z,99.99
2018-09-08T05:00:02.579Z,99.99
2018-09-08T05:01:02.580Z,99.99
2018-09-08T05:02:02.458Z,99.99
2018-09-08T05:03:02.459Z,99.99
2018-09-08T05:04:02.339Z,99.99
2018-09-08T05:05:02.349Z,99.99
2018-09-08T05:06:02.343Z,99.99
2018-09-08T05:07:02.219Z,99.99
2018-09-08T05:08:02.215Z,99.99
2018-09-08T05:09:02.225Z,99.99
2018-09-08T05:10:02.100Z,99.99
2018-09-08T05:11:02.101Z,99.99
2018-09-08T05:12:01.977Z,99.99
2018-09-08T05:13:01.975Z,99.99
2018-09-08T05:14:01.976Z,99.99
2018-09-08T05:15:01.854Z,99.99
2018-09-08T05:16:01.855Z,99.99
2018-09-08T05:17:01.864Z,99.99
2018-09-08T05:18:01.734Z,99.99
2018-09-08T05:19:01.742Z,99.99
2018-09-08T05:20:01.627Z,99.99
2018-09-08T05:21:01.618Z,99.99
2018-09-08T05:22:01.620Z,99.99
2018-09-08T05:23:01.493Z,99.99
2018-09-08T05:24:01.497Z,99.99
2018-09-08T05:25:01.497Z,99.99
2018-09-08T05:26:01.374Z,99.99
2018-09-08T05:27:01.376Z,99.99
2018-09-08T05:28:01.257Z,99.99
2018-09-08T05:29:01.251Z,99.99
2018-09-08T05:30:01.253Z,99.99
2018-09-08T05:31:01.137Z,99.99
2018-09-08T05:32:01.136Z,99.99
2018-09-08T05:33:01.132Z,99.99
2018-09-08T05:34:01.015Z,99.99
2018-09-08T05:35:01.015Z,99.99
2018-09-08T05:36:00.889Z,99.99
2018-09-08T05:37:00.890Z,99.99
2018-09-08T05:38:00.889Z,99.99
2018-09-08T05:39:00.767Z,99.99
2018-09-08T05:40:00.768Z,99.99
2018-09-08T05:41:00.772Z,99.99
2018-09-08T05:42:00.649Z,99.99
2018-09-08T05:43:00.688Z,99.99
2018-09-08T05:44:00.533Z,99.99
2018-09-08T05:45:00.530Z,99.99
2018-09-08T05:46:00.531Z,99.99
2018-09-08T05:47:00.412Z,99.99
2018-09-08T05:48:00.407Z,99.99
2018-09-08T05:49:00.462Z,99.99
2018-09-08T05:50:00.286Z,99.99
2018-09-08T05:51:00.287Z,99.99
2018-09-08T05:52:00.282Z,99.99
2018-09-08T05:53:00.166Z,99.99
2018-09-08T05:54:00.177Z,99.99
2018-09-08T05:55:00.046Z,99.99
2018-09-08T05:56:00.048Z,99.99
2018-09-08T05:57:00.047Z,99.99
2018-09-08T05:57:59.926Z,99.99
2018-09-08T05:58:59.925Z,99.99
2018-09-08T05:59:59.884Z,99.99
2018-09-08T06:00:59.805Z,99.99
2018-09-08T06:01:59.806Z,99.99
2018-09-08T06:02:59.684Z,99.99
2018-09-08T06:03:59.683Z,99.99
2018-09-08T06:04:59.688Z,99.99
2018-09-08T06:05:59.564Z,99.90
2018-09-08T06:06:59.564Z,99.99
2018-09-08T06:07:59.521Z,99.99
2018-09-08T06:08:59.444Z,99.99
2018-09-08T06:09:59.447Z,99.99
2018-09-08T06:10:59.321Z,99.99
2018-09-08T06:11:59.327Z,99.99
2018-09-08T06:12:59.320Z,99.80
2018-09-08T06:13:59.206Z,99.99
2018-09-08T06:14:59.200Z,98.94
2018-09-08T06:15:59.200Z,99.13
2018-09-08T06:16:59.086Z,99.99
2018-09-08T06:17:59.080Z,99.99
2018-09-08T06:18:58.964Z,98.75
2018-09-08T06:19:58.963Z,98.85
2018-09-08T06:20:58.962Z,98.75
2018-09-08T06:21:58.843Z,99.23
2018-09-08T06:22:58.842Z,99.13
2018-09-08T06:23:58.842Z,99.04
2018-09-08T06:24:58.719Z,98.85
2018-09-08T06:25:58.724Z,98.42
2018-09-08T06:26:58.601Z,98.13
2018-09-08T06:27:58.601Z,97.94
2018-09-08T06:28:58.598Z,97.99
2018-09-08T06:29:58.479Z,98.37
2018-09-08T06:30:58.480Z,98.13
2018-09-08T06:31:58.478Z,98.13
2018-09-08T06:32:58.361Z,98.03
2018-09-08T06:33:58.424Z,98.13
2018-09-08T06:34:58.243Z,97.85
2018-09-08T06:35:58.240Z,98.80
2018-09-08T06:36:58.242Z,98.23
2018-09-08T06:37:58.116Z,98.03
2018-09-08T06:38:58.120Z,98.23
2018-09-08T06:39:58.114Z,98.42
2018-09-08T06:40:57.996Z,97.66
2018-09-08T06:41:57.998Z,96.80
2018-09-08T06:42:57.953Z,96.70
2018-09-08T06:43:57.878Z,96.61
2018-09-08T06:44:57.942Z,96.32
2018-09-08T06:45:57.754Z,96.89
2018-09-08T06:46:57.754Z,96.75
2018-09-08T06:47:57.755Z,96.84
2018-09-08T06:48:57.638Z,96.84
2018-09-08T06:49:57.637Z,96.08
2018-09-08T06:50:57.635Z,96.66
2018-09-08T06:51:57.513Z,96.37
2018-09-08T06:52:57.519Z,96.08
2018-09-08T06:53:57.395Z,95.89
2018-09-08T06:54:57.392Z,95.17
2018-09-08T06:55:57.396Z,94.98
2018-09-08T06:56:57.277Z,94.31
2018-09-08T06:57:57.330Z,92.97
2018-09-08T06:58:57.281Z,91.78
2018-09-08T06:59:57.152Z,91.39
2018-09-08T07:00:57.154Z,91.30
2018-09-08T07:01:57.153Z,90.53
2018-09-08T07:02:57.035Z,90.06
2018-09-08T07:03:57.032Z,89.43
2018-09-08T07:04:56.909Z,89.24
2018-09-08T07:05:56.909Z,88.76
2018-09-08T07:06:56.919Z,87.81
2018-09-08T07:07:56.830Z,87.90
2018-09-08T07:08:56.790Z,87.18
2018-09-08T07:09:56.790Z,87.66
2018-09-08T07:10:56.669Z,86.99
2018-09-08T07:11:56.670Z,86.32
2018-09-08T07:12:56.549Z,87.08
2018-09-08T07:13:56.550Z,85.84
2018-09-08T07:14:56.553Z,85.88
2018-09-08T07:15:56.431Z,85.31
2018-09-08T07:16:56.427Z,85.60
2018-09-08T07:17:56.431Z,84.83
2018-09-08T07:18:56.308Z,84.88
2018-09-08T07:19:56.306Z,84.64
2018-09-08T07:20:56.308Z,84.68
2018-09-08T07:21:56.188Z,83.44
2018-09-08T07:22:56.187Z,81.90
2018-09-08T07:23:56.067Z,81.81
2018-09-08T07:24:56.168Z,81.71
2018-09-08T07:25:56.066Z,80.99
2018-09-08T07:26:55.946Z,80.99
2018-09-08T07:27:55.949Z,81.27
2018-09-08T07:28:55.946Z,80.70
2018-09-08T07:29:55.827Z,80.03
2018-09-08T07:30:55.832Z,79.88
2018-09-08T07:31:55.825Z,79.93
2018-09-08T07:32:55.709Z,79.68
2018-09-08T07:33:55.719Z,79.78
2018-09-08T07:34:55.709Z,78.72
2018-09-08T07:35:55.584Z,78.57
2018-09-08T07:36:55.584Z,78.38
2018-09-08T07:37:55.463Z,77.90
2018-09-08T07:38:55.464Z,77.04
2018-09-08T07:39:55.464Z,77.90
2018-09-08T07:40:55.348Z,77.13
2018-09-08T07:41:55.345Z,77.08
2018-09-08T07:42:55.342Z,77.26
2018-09-08T07:43:55.225Z,76.21
2018-09-08T07:44:55.225Z,75.63
2018-09-08T07:45:55.234Z,75.29
2018-09-08T07:46:55.104Z,75.82
2018-09-08T07:47:55.102Z,75.96
2018-09-08T07:48:55.102Z,75.00
2018-09-08T07:49:54.982Z,73.79
2018-09-08T07:50:54.980Z,73.50
2018-09-08T07:51:54.942Z,73.02
2018-09-08T07:52:54.862Z,73.31
2018-09-08T07:53:54.885Z,73.02
2018-09-08T07:54:54.740Z,72.77
2018-09-08T07:55:54.740Z,72.48
2018-09-08T07:56:54.739Z,71.91
2018-09-08T07:57:54.622Z,71.33
2018-09-08T07:58:54.619Z,72.23
2018-09-08T07:59:54.619Z,71.75
2018-09-08T08:00:54.497Z,71.08
2018-09-08T08:01:54.500Z,70.59
2018-09-08T08:02:54.499Z,69.82
2018-09-08T08:03:54.383Z,70.43
2018-09-08T08:04:54.382Z,71.11
2018-09-08T08:05:54.383Z,70.82
2018-09-08T08:06:54.263Z,71.49
2018-09-08T08:07:54.265Z,70.34
2018-09-08T08:08:54.138Z,68.41
2018-09-08T08:09:54.145Z,68.13
2018-09-08T08:10:54.139Z,69.47
2018-09-08T08:11:54.015Z,69.85
2018-09-08T08:12:54.015Z,68.99
2018-09-08T08:13:54.014Z,68.70
2018-09-08T08:14:53.899Z,68.84
2018-09-08T08:15:53.895Z,68.93
2018-09-08T08:16:53.896Z,68.16
2018-09-08T08:17:53.776Z,67.39
2018-09-08T08:18:53.776Z,68.06
2018-09-08T08:19:53.774Z,67.39
2018-09-08T08:20:53.654Z,67.19
2018-09-08T08:21:53.654Z,67.00
2018-09-08T08:22:53.656Z,67.87
2018-09-08T08:23:53.544Z,68.26
2018-09-08T08:24:53.531Z,68.64
2018-09-08T08:25:53.536Z,67.97
2018-09-08T08:26:53.414Z,67.10
2018-09-08T08:27:53.413Z,66.71
2018-09-08T08:28:53.416Z,66.52
2018-09-08T08:29:53.294Z,67.07
2018-09-08T08:30:53.294Z,68.13
2018-09-08T08:31:53.250Z,68.70
2018-09-08T08:32:53.177Z,69.70
2018-09-08T08:33:53.174Z,70.15
2018-09-08T08:34:53.053Z,68.51
2018-09-08T08:35:53.051Z,68.80
2018-09-08T08:36:53.058Z,69.38
2018-09-08T08:37:52.932Z,68.80
2018-09-08T08:38:52.934Z,68.22
2018-09-08T08:39:52.932Z,67.83
2018-09-08T08:40:52.811Z,67.93
2018-09-08T08:41:52.811Z,67.68
2018-09-08T08:42:52.813Z,67.97
2018-09-08T08:43:52.691Z,67.68
2018-09-08T08:44:52.690Z,68.26
2018-09-08T08:45:52.688Z,67.87
2018-09-08T08:46:52.576Z,68.64
2018-09-08T08:47:52.571Z,68.35
2018-09-08T08:48:52.571Z,68.26
2018-09-08T08:49:52.492Z,66.91
2018-09-08T08:50:52.452Z,66.81
2018-09-08T08:51:52.458Z,67.77
2018-09-08T08:52:52.327Z,67.33
2018-09-08T08:53:52.332Z,68.00
2018-09-08T08:54:52.333Z,69.06
2018-09-08T08:55:52.349Z,68.00
2018-09-08T08:56:52.212Z,66.75
2018-09-08T08:57:52.209Z,66.27
2018-09-08T08:58:52.091Z,66.94
2018-09-08T08:59:52.087Z,66.85
2018-09-08T09:00:52.091Z,67.33
2018-09-08T09:01:51.976Z,67.42
2018-09-08T09:02:51.963Z,68.10
2018-09-08T09:03:51.967Z,67.81
2018-09-08T09:04:51.848Z,66.46
2018-09-08T09:05:51.847Z,66.65
2018-09-08T09:06:51.843Z,66.46
2018-09-08T09:07:51.725Z,67.13
2018-09-08T09:08:51.731Z,67.03
2018-09-08T09:09:51.727Z,66.65
2018-09-08T09:10:51.602Z,66.85
2018-09-08T09:11:52.108Z,66.85
2018-09-08T09:12:51.637Z,67.61
2018-09-08T09:13:51.484Z,68.96
2018-09-08T09:14:51.481Z,68.29
2018-09-08T09:15:51.496Z,67.90
2018-09-08T09:16:51.361Z,69.15
2018-09-08T09:17:51.361Z,66.94
2018-09-08T09:18:51.872Z,65.78
2018-09-08T09:19:51.240Z,66.07
2018-09-08T09:20:51.241Z,67.81
2018-09-08T09:21:51.199Z,66.85
2018-09-08T09:22:51.122Z,66.65
2018-09-08T09:23:51.123Z,66.65
2018-09-08T09:24:51.573Z,67.13
2018-09-08T09:25:51.002Z,67.13
2018-09-08T09:26:50.999Z,67.71
2018-09-08T09:27:50.958Z,67.52
2018-09-08T09:28:50.881Z,65.40
2018-09-08T09:29:50.884Z,65.69
2018-09-08T09:30:50.875Z,65.98
2018-09-08T09:31:50.771Z,66.01
2018-09-08T09:32:51.127Z,66.55
2018-09-08T09:33:50.762Z,65.14
2018-09-08T09:34:51.080Z,65.14
2018-09-08T09:35:50.716Z,65.78
2018-09-08T09:36:50.618Z,65.43
2018-09-08T09:37:50.518Z,65.91
2018-09-08T09:38:50.515Z,66.20
2018-09-08T09:39:50.399Z,65.63
2018-09-08T09:40:50.398Z,66.30
2018-09-08T09:41:50.396Z,66.69
2018-09-08T09:42:50.353Z,66.69
2018-09-08T09:43:50.275Z,66.97
2018-09-08T09:44:50.280Z,66.43
2018-09-08T09:45:50.156Z,65.37
2018-09-08T09:47:50.237Z,66.24
2018-09-08T09:48:50.034Z,65.47
2018-09-08T09:49:50.035Z,65.37
2018-09-08T09:50:50.033Z,64.02
2018-09-08T09:51:49.914Z,64.59
2018-09-08T09:52:49.916Z,64.40
2018-09-08T09:53:49.913Z,65.66
2018-09-08T09:54:49.792Z,64.69
2018-09-08T09:55:49.792Z,64.59
2018-09-08T09:56:49.797Z,63.63
2018-09-08T09:57:49.676Z,64.21
2018-09-08T09:58:49.671Z,64.31
2018-09-08T09:59:49.678Z,64.37
2018-09-08T10:00:49.550Z,65.63
2018-09-08T10:01:49.552Z,65.91
2018-09-08T10:02:49.634Z,65.63
2018-09-08T10:03:49.429Z,65.53
2018-09-08T10:04:49.436Z,65.14
2018-09-08T10:05:49.431Z,64.47
2018-09-08T10:06:49.311Z,64.56
2018-09-08T10:07:49.316Z,64.47
2018-09-08T10:08:49.311Z,64.56
2018-09-08T10:09:49.190Z,64.47
2018-09-08T10:10:49.190Z,63.60
2018-09-08T10:11:49.192Z,63.31
2018-09-08T10:12:49.070Z,62.25
2018-09-08T10:13:49.072Z,62.25
2018-09-08T10:14:49.069Z,63.31
2018-09-08T10:15:48.949Z,62.25
2018-09-08T10:16:48.952Z,63.12
2018-09-08T10:17:48.945Z,63.60
2018-09-08T10:18:48.827Z,62.83
2018-09-08T10:19:48.826Z,63.28
2018-09-08T10:20:48.833Z,63.09
2018-09-08T10:21:48.706Z,62.41
2018-09-08T10:22:48.708Z,62.32
2018-09-08T10:24:04.350Z,61.35
2018-09-08T10:24:48.594Z,62.03
2018-09-08T10:25:48.585Z,61.74
2018-09-08T10:26:48.543Z,63.28
2018-09-08T10:27:48.474Z,63.95
2018-09-08T10:28:48.469Z,64.25
2018-09-08T10:29:48.423Z,63.09
2018-09-08T10:30:48.348Z,63.38
2018-09-08T10:31:48.716Z,61.55
2018-09-08T10:32:48.226Z,61.93
2018-09-08T10:33:48.224Z,62.12
2018-09-08T10:34:48.242Z,61.93
2018-09-08T10:35:48.104Z,60.97
2018-09-08T10:36:48.103Z,60.58
2018-09-08T10:37:48.101Z,61.10
2018-09-08T10:38:47.985Z,60.23
2018-09-08T10:39:47.983Z,59.17
2018-09-08T10:40:47.983Z,59.84
2018-09-08T10:41:47.863Z,58.72
2018-09-08T10:42:47.867Z,58.14
2018-09-08T10:43:47.862Z,57.46
2018-09-08T10:44:47.743Z,57.46
2018-09-08T10:45:47.741Z,59.00
2018-09-08T10:46:47.742Z,58.33
2018-09-08T10:47:47.621Z,57.94
2018-09-08T10:48:47.623Z,59.00
2018-09-08T10:49:47.623Z,59.30
2018-09-08T10:50:47.558Z,59.36
2018-09-08T10:51:47.500Z,59.39
2018-09-08T10:52:47.500Z,58.14
2018-09-08T10:53:47.380Z,57.43
2018-09-08T10:54:47.381Z,57.62
2018-09-08T10:55:47.381Z,57.82
2018-09-08T10:56:47.261Z,58.97
2018-09-08T10:57:47.257Z,59.45
2018-09-08T10:58:47.263Z,59.48
2018-09-08T10:59:47.138Z,58.88
2018-09-08T11:00:47.138Z,58.78
2018-09-08T11:01:47.186Z,57.53
2018-09-08T11:02:47.299Z,56.47
2018-09-08T11:03:47.022Z,55.79
2018-09-08T11:05:46.902Z,57.62
2018-09-08T11:07:46.906Z,57.34
2018-09-08T11:08:46.777Z,57.62
2018-09-08T11:09:46.777Z,57.24
2018-09-08T11:10:46.779Z,57.72
2018-09-08T11:11:46.655Z,58.97
2018-09-08T11:12:46.656Z,59.00
2018-09-08T11:13:46.654Z,57.65
2018-09-08T11:14:46.534Z,55.73
2018-09-08T11:15:46.543Z,55.82
2018-09-08T11:16:46.535Z,56.59
2018-09-08T11:17:46.420Z,56.11
2018-09-08T11:18:46.473Z,56.81
2018-09-08T11:19:46.416Z,56.49
2018-09-08T11:20:46.295Z,55.18
2018-09-08T11:21:46.294Z,55.46
2018-09-08T11:22:46.295Z,55.15
2018-09-08T11:23:46.172Z,56.01
2018-09-08T11:24:46.175Z,57.39
2018-09-08T11:25:46.179Z,56.04
2018-09-08T11:26:46.055Z,55.36
2018-09-08T11:27:46.131Z,55.27
2018-09-08T11:28:46.056Z,54.98
2018-09-08T11:29:45.933Z,54.69
2018-09-08T11:30:46.006Z,55.01
2018-09-08T11:31:45.931Z,54.33
2018-09-08T11:32:45.814Z,53.75
2018-09-08T11:33:45.815Z,53.95
2018-09-08T11:34:45.814Z,53.56
2018-09-08T11:35:45.690Z,54.05
2018-09-08T11:36:45.692Z,53.75
2018-09-08T11:37:45.690Z,53.75
2018-09-08T11:38:45.574Z,51.92
2018-09-08T11:39:45.568Z,52.43
2018-09-08T11:40:45.569Z,53.39
2018-09-08T11:41:45.450Z,51.75
2018-09-08T11:42:45.449Z,51.46
2018-09-08T11:43:45.449Z,53.20
2018-09-08T11:44:45.387Z,54.46
2018-09-08T11:45:45.330Z,52.23
2018-09-08T11:46:45.328Z,51.46
2018-09-08T11:47:45.208Z,50.59
2018-09-08T11:48:45.207Z,50.33
2018-09-08T11:49:45.211Z,50.04
2018-09-08T11:50:45.087Z,49.55
2018-09-08T11:51:45.088Z,51.29
2018-09-08T11:52:45.110Z,49.65
2018-09-08T11:53:44.966Z,51.42
2018-09-08T11:54:44.968Z,51.51
2018-09-08T11:55:45.110Z,50.84
2018-09-08T11:56:44.850Z,51.23
2018-09-08T11:57:44.846Z,50.93
2018-09-08T11:58:44.853Z,50.16
2018-09-08T11:59:44.757Z,49.97
2018-09-08T12:00:44.729Z,50.13
2018-09-08T12:01:44.724Z,50.33
2018-09-08T12:02:44.603Z,50.93
2018-09-08T12:03:44.604Z,51.59
2018-09-08T12:04:44.605Z,52.75
2018-09-08T12:05:44.486Z,51.97
2018-09-08T12:06:44.487Z,52.17
2018-09-08T12:07:44.483Z,51.87
2018-09-08T12:08:44.362Z,52.14
2018-09-08T12:09:44.362Z,53.01
2018-09-08T12:10:44.380Z,53.30
2018-09-08T12:11:44.244Z,52.14
2018-09-08T12:12:44.242Z,51.56
2018-09-08T12:13:44.241Z,52.43
2018-09-08T12:14:44.120Z,53.78
2018-09-08T12:15:44.127Z,53.97
2018-09-08T12:16:44.120Z,52.91
2018-09-08T12:17:44.005Z,52.89
2018-09-08T12:18:43.999Z,53.20
2018-09-08T12:19:44.001Z,51.95
2018-09-08T12:20:43.882Z,51.27
2018-09-08T12:21:43.879Z,52.23
2018-09-08T12:22:43.880Z,52.33
2018-09-08T12:23:43.759Z,52.89
2018-09-08T12:24:43.760Z,52.40
2018-09-08T12:25:43.762Z,51.92
2018-09-08T12:26:43.637Z,52.40
2018-09-08T12:27:43.639Z,52.14
2018-09-08T12:28:43.641Z,51.87
2018-09-08T12:29:43.524Z,51.29
2018-09-08T12:30:43.560Z,52.07
2018-09-08T12:31:43.518Z,52.23
2018-09-08T12:32:43.401Z,51.27
2018-09-08T12:33:43.398Z,52.43
2018-09-08T12:34:43.397Z,52.43
2018-09-08T12:35:43.289Z,51.85
2018-09-08T12:36:43.276Z,52.01
2018-09-08T12:37:43.275Z,51.63
2018-09-08T12:38:43.172Z,51.37
2018-09-08T12:39:43.156Z,51.95
2018-09-08T12:40:43.157Z,51.65
2018-09-08T12:41:43.034Z,51.46
2018-09-08T12:42:43.034Z,52.04
2018-09-08T12:43:43.036Z,51.49
2018-09-08T12:44:42.914Z,52.07
2018-09-08T12:45:42.922Z,51.78
2018-09-08T12:46:42.915Z,52.09
2018-09-08T12:47:42.799Z,52.48
2018-09-08T12:48:42.794Z,51.42
2018-09-08T12:49:42.793Z,49.97
2018-09-08T12:50:42.675Z,49.99
2018-09-08T12:51:42.672Z,49.10
2018-09-08T12:52:42.674Z,49.58
2018-09-08T12:53:42.555Z,49.10
2018-09-08T12:54:42.553Z,49.87